Time;durP1;ratioP1;P1;durP2;ratioP2;P2;SDS_P1;SDS_P2;PMS_P1;PMS_P2;Temp;Humidity;BMP_temperature;BMP_pressure;BME280_temperature;BME280_humidity;BME280_pressure;Samples;Min_cycle;Max_cycle;Signal;HPM_P1;HPM_P2
2022/10/08 00:00:58;;;;;;;6.43;1.80;;;;;;;12.03;100.00;101326.72;5057593;28;20032;-81
2022/10/08 00:03:26;;;;;;;12.57;2.28;;;;;;;11.99;100.00;101314.25;5042963;28;20029;-81
2022/10/08 00:06:00;;;;;;;9.98;1.85;;;;;;;12.01;100.00;101315.00;5060170;28;20034;-81
2022/10/08 00:08:28;;;;;;;9.85;2.22;;;;;;;12.08;100.00;101329.13;5042558;28;20384;-81
2022/10/08 00:11:02;;;;;;;9.25;2.17;;;;;;;12.08;100.00;101301.66;5059848;28;20116;-82
2022/10/08 00:13:39;;;;;;;7.72;1.55;;;;;;;12.14;100.00;101318.53;5059791;28;20058;-82
2022/10/08 00:16:16;;;;;;;13.77;2.25;;;;;;;12.14;100.00;101315.78;5058424;28;20065;-82
2022/10/08 00:18:43;;;;;;;15.27;2.58;;;;;;;12.19;100.00;101314.56;5059283;28;20033;-82
2022/10/08 00:21:19;;;;;;;13.27;2.92;;;;;;;12.18;100.00;101318.28;5059834;28;20033;-82
2022/10/08 00:23:46;;;;;;;11.75;1.98;;;;;;;12.14;100.00;101304.81;5042814;28;20040;-82
2022/10/08 00:26:13;;;;;;;17.23;2.78;;;;;;;12.20;100.00;101308.06;5058918;28;20412;-82
2022/10/08 00:28:42;;;;;;;10.07;2.08;;;;;;;12.20;100.00;101317.19;5059466;28;20041;-81
2022/10/08 00:31:10;;;;;;;9.00;2.20;;;;;;;12.16;100.00;101318.41;5058945;28;20028;-82
2022/10/08 00:33:37;;;;;;;10.52;2.35;;;;;;;12.04;100.00;101313.91;5042073;28;20021;-82
2022/10/08 00:36:08;;;;;;;9.35;2.03;;;;;;;11.99;100.00;101319.75;5043228;28;20480;-81
2022/10/08 00:38:33;;;;;;;11.90;2.05;;;;;;;11.97;100.00;101316.25;5056584;28;20063;-82
2022/10/08 00:40:59;;;;;;;13.93;2.40;;;;;;;11.95;100.00;101313.63;5059590;28;20469;-82
2022/10/08 00:43:45;;;;;;;12.30;2.00;;;;;;;11.93;100.00;101309.22;5059974;28;20029;-81
2022/10/08 00:46:35;;;;;;;8.55;2.15;;;;;;;12.01;100.00;101317.75;5053914;28;20025;-82
2022/10/08 00:49:17;;;;;;;12.13;2.47;;;;;;;12.07;100.00;101311.78;5035714;28;20049;-82
2022/10/08 00:51:49;;;;;;;20.50;3.35;;;;;;;12.04;100.00;101291.94;5057143;28;20053;-82
2022/10/08 00:54:17;;;;;;;12.00;1.90;;;;;;;12.14;100.00;101310.28;5048166;28;20039;-82
2022/10/08 00:56:43;;;;;;;10.48;2.33;;;;;;;12.17;100.00;101302.81;5058817;28;20021;-81
2022/10/08 00:59:11;;;;;;;7.93;2.22;;;;;;;12.25;100.00;101312.22;5041967;28;20395;-80
2022/10/08 01:01:39;;;;;;;10.63;1.92;;;;;;;12.25;100.00;101303.97;5041549;28;20029;-80
2022/10/08 01:04:06;;;;;;;13.68;2.83;;;;;;;12.27;100.00;101298.34;5023536;28;20037;-80
2022/10/08 01:07:09;;;;;;;11.90;2.03;;;;;;;12.23;100.00;101283.09;5040566;28;20029;-80
2022/10/08 01:09:42;;;;;;;10.57;2.20;;;;;;;12.37;100.00;101304.00;5047231;28;20047;-80
2022/10/08 01:12:14;;;;;;;;;;;;;;;12.45;100.00;101301.50;5042539;28;20061;-80
2022/10/08 01:15:22;;;;;;;12.75;2.10;;;;;;;12.43;100.00;101295.25;5057870;28;19995;-80
2022/10/08 01:18:41;;;;;;;20.10;2.25;;;;;;;12.47;100.00;101305.88;5057303;28;20036;-80
2022/10/08 01:21:37;;;;;;;13.27;2.13;;;;;;;12.48;100.00;101307.63;4995493;28;20038;-80
2022/10/08 01:24:20;;;;;;;16.20;2.42;;;;;;;12.48;100.00;101298.53;4981419;28;20545;-80
2022/10/08 01:27:05;;;;;;;12.32;2.20;;;;;;;12.54;100.00;101314.47;5027245;28;20127;-80
2022/10/08 01:29:41;;;;;;;13.18;2.58;;;;;;;12.59;100.00;101311.38;5062667;28;20373;-80
2022/10/08 01:32:12;;;;;;;12.13;2.40;;;;;;;12.52;100.00;101313.75;5064171;28;20060;-81
2022/10/08 01:35:02;;;;;;;15.50;2.40;;;;;;;12.50;100.00;101334.97;5059259;28;20026;-80
2022/10/08 01:37:36;;;;;;;10.40;2.33;;;;;;;12.41;100.00;101327.44;5042227;28;20029;-81
2022/10/08 01:40:08;;;;;;;13.55;2.15;;;;;;;12.34;100.00;101332.56;5056269;28;20035;-81
2022/10/08 01:42:38;;;;;;;17.25;2.40;;;;;;;12.13;100.00;101335.13;5044595;28;20389;-82
2022/10/08 01:45:09;;;;;;;17.13;2.45;;;;;;;12.16;100.00;101334.88;5053353;28;20079;-83
2022/10/08 01:47:39;;;;;;;11.57;1.90;;;;;;;12.17;100.00;101327.50;5043484;28;20041;-83
2022/10/08 01:50:08;;;;;;;12.52;2.55;;;;;;;12.10;100.00;101338.09;5061115;28;20029;-83
2022/10/08 01:52:42;;;;;;;11.00;2.15;;;;;;;12.16;100.00;101339.50;5062567;28;20090;-81
2022/10/08 01:55:15;;;;;;;13.65;1.98;;;;;;;12.19;100.00;101344.75;5063179;28;20361;-81
2022/10/08 01:57:43;;;;;;;15.27;3.97;;;;;;;12.12;100.00;101328.75;5061593;28;20040;-82
2022/10/08 02:00:12;;;;;;;8.48;2.15;;;;;;;11.84;100.00;101327.25;5066439;28;20048;-82
2022/10/08 02:02:38;;;;;;;7.75;2.17;;;;;;;11.95;100.00;101330.09;5059912;28;20053;-82
2022/10/08 02:05:04;;;;;;;13.05;3.00;;;;;;;12.00;100.00;101337.06;5059992;28;20037;-82
2022/10/08 02:07:32;;;;;;;22.27;3.85;;;;;;;12.02;100.00;101340.56;5068225;28;20040;-82
2022/10/08 02:10:16;;;;;;;15.07;2.58;;;;;;;11.93;100.00;101332.06;5044903;28;20033;-83
2022/10/08 02:12:43;;;;;;;13.93;2.63;;;;;;;11.94;100.00;101330.19;5052031;28;20045;-83
2022/10/08 02:15:15;;;;;;;13.70;3.10;;;;;;;11.87;100.00;101338.00;5056632;28;20033;-83
2022/10/08 02:18:05;;;;;;;21.20;2.80;;;;;;;11.86;100.00;101351.84;5057105;28;20059;-83
2022/10/08 02:20:33;;;;;;;17.15;2.75;;;;;;;11.69;100.00;101339.38;5043732;28;20475;-83
2022/10/08 02:23:08;;;;;;;14.90;2.75;;;;;;;11.83;100.00;101352.94;5059800;28;20037;-83
2022/10/08 02:25:48;;;;;;;16.83;2.90;;;;;;;11.87;100.00;101345.34;5054664;28;20096;-83
2022/10/08 02:28:51;;;;;;;15.77;2.80;;;;;;;11.91;100.00;101353.25;5058383;28;20074;-83
2022/10/08 02:31:29;;;;;;;14.52;2.75;;;;;;;12.02;100.00;101340.56;5061304;28;20025;-83
2022/10/08 02:34:17;;;;;;;14.05;3.15;;;;;;;12.01;100.00;101339.69;5044397;28;20025;-83
2022/10/08 02:37:23;;;;;;;10.65;2.55;;;;;;;11.92;100.00;101349.53;5033035;28;20125;-82
2022/10/08 02:39:56;;;;;;;15.88;3.17;;;;;;;12.02;100.00;101357.03;5058872;28;20175;-81
2022/10/08 02:42:24;;;;;;;13.93;2.95;;;;;;;11.95;100.00;101356.63;5067849;28;20029;-81
2022/10/08 02:45:00;;;;;;;11.85;2.78;;;;;;;11.78;100.00;101349.66;5049380;28;20029;-83
2022/10/08 02:47:31;;;;;;;15.13;2.80;;;;;;;11.73;100.00;101340.91;5049869;28;20032;-80
2022/10/08 02:50:01;;;;;;;4.97;2.50;;;;;;;11.80;100.00;101353.16;5065175;28;20028;-82
2022/10/08 02:52:34;;;;;;;7.00;2.10;;;;;;;11.74;100.00;101339.91;5049679;28;20021;-83
2022/10/08 02:55:03;;;;;;;13.45;3.08;;;;;;;11.75;100.00;101344.41;5056416;28;20085;-82
2022/10/08 02:57:38;;;;;;;14.27;2.97;;;;;;;11.59;100.00;101334.63;5070196;28;20036;-82
2022/10/08 03:00:04;;;;;;;9.15;3.10;;;;;;;11.72;100.00;101336.41;5067047;28;20044;-82
2022/10/08 03:02:47;;;;;;;13.57;2.90;;;;;;;11.69;100.00;101333.91;5010308;28;20029;-82
2022/10/08 03:05:17;;;;;;;9.05;3.33;;;;;;;11.71;100.00;101326.44;5058989;28;20101;-82
2022/10/08 03:07:45;;;;;;;10.82;3.30;;;;;;;11.71;100.00;101334.69;5061464;28;20469;-82
2022/10/08 03:10:12;;;;;;;13.27;3.03;;;;;;;11.58;100.00;101327.38;5044847;28;20029;-81
2022/10/08 03:12:38;;;;;;;13.48;3.05;;;;;;;11.54;100.00;101328.63;5043386;28;20156;-80
2022/10/08 03:15:04;;;;;;;11.27;3.13;;;;;;;11.57;100.00;101343.94;5024955;28;20041;-83
2022/10/08 03:17:39;;;;;;;12.23;3.17;;;;;;;11.56;100.00;101350.44;5043222;28;20523;-80
2022/10/08 03:20:07;;;;;;;16.92;3.40;;;;;;;11.57;100.00;101349.44;5034562;28;20059;-81
2022/10/08 03:22:34;;;;;;;13.52;3.20;;;;;;;11.57;100.00;101349.44;5060715;28;20043;-81
2022/10/08 03:25:00;;;;;;;13.73;3.60;;;;;;;11.48;100.00;101348.25;5040936;28;20484;-82
2022/10/08 03:27:25;;;;;;;21.15;4.85;;;;;;;11.53;100.00;101350.66;5061766;28;20384;-82
2022/10/08 03:29:55;;;;;;;11.50;3.60;;;;;;;11.55;100.00;101360.50;5059459;28;20043;-81
2022/10/08 03:32:22;;;;;;;11.82;3.08;;;;;;;11.52;100.00;101357.13;5045782;28;20036;-80
2022/10/08 03:34:48;;;;;;;17.15;3.55;;;;;;;11.56;100.00;101361.41;5033919;28;20056;-82
2022/10/08 03:37:13;;;;;;;11.18;3.13;;;;;;;11.48;100.00;101355.59;5042353;28;20037;-82
2022/10/08 03:39:39;;;;;;;20.90;3.20;;;;;;;11.36;100.00;101350.06;5062884;28;20029;-81
2022/10/08 03:42:04;;;;;;;15.57;3.28;;;;;;;11.44;100.00;101362.31;5043045;28;22146;-80
2022/10/08 03:44:30;;;;;;;10.95;2.72;;;;;;;11.43;100.00;101358.72;5014767;28;20496;-82
2022/10/08 03:46:55;;;;;;;14.43;2.45;;;;;;;11.42;100.00;101372.53;5033431;28;20115;-81
2022/10/08 03:49:21;;;;;;;12.05;2.70;;;;;;;11.38;100.00;101372.75;5048645;28;20388;-82
2022/10/08 03:51:46;;;;;;;8.93;2.08;;;;;;;11.42;100.00;101375.28;5059447;28;20037;-83
2022/10/08 03:54:11;;;;;;;12.73;2.58;;;;;;;11.43;100.00;101368.78;5046169;28;20033;-82
2022/10/08 03:56:37;;;;;;;10.85;2.80;;;;;;;11.48;100.00;101385.75;5046252;28;20472;-81
2022/10/08 03:59:02;;;;;;;11.50;2.00;;;;;;;11.43;100.00;101380.66;5030306;28;20064;-82
2022/10/08 04:01:28;;;;;;;9.50;2.35;;;;;;;11.33;100.00;101374.06;5021036;28;20038;-81
2022/10/08 04:03:54;;;;;;;4.65;2.15;;;;;;;11.33;100.00;101374.06;5042312;28;20047;-82
2022/10/08 04:06:20;;;;;;;10.20;2.70;;;;;;;11.30;100.00;101371.59;5042169;28;20400;-82
2022/10/08 04:08:45;;;;;;;7.03;2.15;;;;;;;11.37;100.00;101383.84;5040074;28;20068;-82
2022/10/08 04:11:14;;;;;;;9.70;2.00;;;;;;;11.34;100.00;101375.84;5043075;28;20040;-82
2022/10/08 04:13:40;;;;;;;10.77;2.42;;;;;;;11.30;100.00;101385.28;5055135;28;20036;-82
2022/10/08 04:16:10;;;;;;;13.32;2.65;;;;;;;11.30;100.00;101388.03;5041118;28;20116;-82
2022/10/08 04:18:35;;;;;;;10.43;2.17;;;;;;;11.31;100.00;101385.16;5042673;28;20063;-83
2022/10/08 04:21:06;;;;;;;7.88;2.00;;;;;;;11.33;100.00;101379.56;5043470;28;20048;-81
2022/10/08 04:23:33;;;;;;;9.07;2.25;;;;;;;11.40;100.00;101381.72;5045794;28;20055;-81
2022/10/08 04:25:59;;;;;;;7.72;1.92;;;;;;;11.22;100.00;101373.00;5040386;28;20459;-82
2022/10/08 04:28:24;;;;;;;8.90;2.67;;;;;;;11.19;100.00;101378.72;5048603;28;20068;-83
2022/10/08 04:30:55;;;;;;;6.68;2.03;;;;;;;11.21;100.00;101382.25;5042289;28;20040;-82
2022/10/08 04:33:20;;;;;;;13.18;2.17;;;;;;;11.13;100.00;101376.41;5061722;28;20091;-81
2022/10/08 04:35:45;;;;;;;9.73;2.15;;;;;;;11.01;100.00;101380.94;5011518;28;20038;-81
2022/10/08 04:38:11;;;;;;;12.40;2.15;;;;;;;11.02;100.00;101390.91;5027321;28;20037;-81
2022/10/08 04:40:36;;;;;;;16.50;2.42;;;;;;;11.02;100.00;101404.63;5028291;28;20129;-82
2022/10/08 04:43:02;;;;;;;15.65;2.63;;;;;;;11.06;100.00;101398.91;5024862;28;20030;-82
2022/10/08 04:45:27;;;;;;;11.75;2.10;;;;;;;10.91;100.00;101393.56;5043486;28;20037;-82
2022/10/08 04:47:53;;;;;;;11.35;2.10;;;;;;;10.89;100.00;101400.09;5045586;28;20028;-81
2022/10/08 04:50:18;;;;;;;7.65;2.55;;;;;;;10.90;100.00;101401.88;5059516;28;20033;-82
2022/10/08 04:52:43;;;;;;;9.50;2.40;;;;;;;10.98;100.00;101407.69;5027211;28;20132;-81
2022/10/08 04:55:09;;;;;;;17.35;4.28;;;;;;;10.97;100.00;101411.41;5043598;28;20092;-83
2022/10/08 04:57:34;;;;;;;10.13;2.97;;;;;;;11.00;100.00;101419.41;5027324;28;20036;-80
2022/10/08 04:59:59;;;;;;;11.45;2.78;;;;;;;11.09;100.00;101426.09;5022524;28;20053;-82
2022/10/08 05:02:25;;;;;;;9.82;2.97;;;;;;;11.14;100.00;101421.16;5039567;28;20043;-82
2022/10/08 05:04:50;;;;;;;14.40;3.40;;;;;;;11.17;100.00;101434.66;5028791;28;20044;-82
2022/10/08 05:07:15;;;;;;;19.05;5.07;;;;;;;11.13;100.00;101425.75;4999953;28;20405;-82
2022/10/08 05:09:41;;;;;;;14.52;6.28;;;;;;;11.28;100.00;101442.06;5040739;28;20036;-82
2022/10/08 05:12:06;;;;;;;14.38;5.45;;;;;;;11.33;100.00;101442.59;5022947;28;20049;-81
2022/10/08 05:14:32;;;;;;;23.23;7.43;;;;;;;11.36;100.00;101448.78;5029963;28;20030;-82
2022/10/08 05:16:57;;;;;;;23.92;8.52;;;;;;;11.30;100.00;101448.34;5042316;28;20374;-84
2022/10/08 05:19:23;;;;;;;31.38;9.85;;;;;;;11.36;100.00;101450.63;5034697;28;20038;-84
2022/10/08 05:21:48;;;;;;;26.42;11.70;;;;;;;11.38;100.00;101452.25;5008857;28;20080;-85
2022/10/08 05:24:13;;;;;;;27.92;12.70;;;;;;;11.30;100.00;101449.22;5032531;28;20033;-85
2022/10/08 05:26:39;;;;;;;33.30;13.30;;;;;;;11.39;100.00;101456.75;5043797;28;20040;-85
2022/10/08 05:29:09;;;;;;;38.97;15.20;;;;;;;11.46;100.00;101459.03;5059893;28;20041;-85
2022/10/08 05:31:36;;;;;;;45.85;16.27;;;;;;;11.50;100.00;101466.94;5059675;28;20029;-85
2022/10/08 05:34:01;;;;;;;46.72;18.25;;;;;;;11.52;100.00;101467.69;5030292;28;20064;-84
2022/10/08 05:36:29;;;;;;;42.33;17.80;;;;;;;11.63;100.00;101469.66;5024273;28;20089;-84
2022/10/08 05:38:55;;;;;;;51.60;19.08;;;;;;;11.46;100.00;101467.28;5046797;28;20021;-83
2022/10/08 05:41:27;;;;;;;56.72;21.20;;;;;;;11.45;100.00;101452.69;5024492;28;20037;-82
2022/10/08 05:43:54;;;;;;;55.10;22.02;;;;;;;11.65;100.00;101475.91;5058247;28;20021;-84
2022/10/08 05:46:22;;;;;;;61.70;24.55;;;;;;;11.63;100.00;101480.63;5059636;28;20051;-85
2022/10/08 05:48:51;;;;;;;64.93;22.95;;;;;;;11.55;100.00;101472.09;5060210;28;20033;-84
2022/10/08 05:51:16;;;;;;;76.40;25.63;;;;;;;11.63;100.00;101477.88;5059984;28;20488;-84
2022/10/08 05:53:45;;;;;;;79.30;26.60;;;;;;;11.67;100.00;101476.66;5062385;28;20025;-83
2022/10/08 05:56:12;;;;;;;77.68;27.05;;;;;;;11.60;100.00;101483.59;5057864;28;20022;-84
2022/10/08 05:58:39;;;;;;;80.90;27.42;;;;;;;11.58;100.00;101489.19;5028639;28;20176;-83
2022/10/08 06:01:14;;;;;;;75.53;25.90;;;;;;;11.62;100.00;101488.97;5042492;28;20069;-83
2022/10/08 06:03:40;;;;;;;79.05;30.38;;;;;;;11.67;100.00;101492.25;5060545;28;20068;-83
2022/10/08 06:06:08;;;;;;;81.35;28.92;;;;;;;11.60;100.00;101486.34;5025391;28;20060;-83
2022/10/08 06:08:35;;;;;;;82.63;29.35;;;;;;;11.56;100.00;101499.41;5048246;28;20085;-84
2022/10/08 06:11:04;;;;;;;100.75;30.85;;;;;;;11.55;100.00;101516.84;5044584;28;20052;-82
2022/10/08 06:13:29;;;;;;;91.43;31.92;;;;;;;11.54;100.00;101514.22;5041918;28;20025;-82
2022/10/08 06:16:01;;;;;;;85.10;31.83;;;;;;;11.54;100.00;101509.63;5062091;28;20044;-83
2022/10/08 06:18:29;;;;;;;88.95;31.98;;;;;;;11.63;100.00;101520.91;5063121;28;20108;-82
2022/10/08 06:20:54;;;;;;;99.40;32.50;;;;;;;11.64;100.00;101529.03;5067939;28;20036;-83
2022/10/08 06:23:21;;;;;;;86.45;31.10;;;;;;;11.65;100.00;101533.50;5051177;28;20033;-82
2022/10/08 06:25:47;;;;;;;88.10;32.35;;;;;;;11.54;100.00;101522.44;5063319;28;20028;-82
2022/10/08 06:28:13;;;;;;;102.03;34.50;;;;;;;11.62;100.00;101528.25;5011063;28;20044;-82
2022/10/08 06:30:42;;;;;;;92.85;34.78;;;;;;;11.86;100.00;101542.03;5047597;28;20032;-81
2022/10/08 06:33:08;;;;;;;94.05;34.20;;;;;;;11.85;100.00;101547.63;5062575;28;20058;-80
2022/10/08 06:35:34;;;;;;;91.38;34.53;;;;;;;11.79;100.00;101540.75;5032638;28;20040;-82
2022/10/08 06:38:00;;;;;;;93.78;34.83;;;;;;;11.85;100.00;101556.72;5064975;28;20039;-83
2022/10/08 06:40:26;;;;;;;94.13;33.33;;;;;;;11.98;100.00;101555.88;5049878;28;20392;-83
2022/10/08 06:42:51;;;;;;;92.32;34.53;;;;;;;12.03;100.00;101557.28;5064259;28;20104;-83
2022/10/08 06:45:17;;;;;;;88.75;31.60;;;;;;;11.81;100.00;101554.34;5030632;28;20033;-84
2022/10/08 06:47:42;;;;;;;102.75;33.03;;;;;;;11.86;100.00;101565.84;5045046;28;20040;-82
2022/10/08 06:50:08;;;;;;;95.68;33.78;;;;;;;11.90;100.00;101565.53;5033953;28;20029;-79
2022/10/08 06:52:34;;;;;;;102.90;35.13;;;;;;;12.01;100.00;101573.00;5076689;28;20040;-81
2022/10/08 06:54:59;;;;;;;93.05;33.70;;;;;;;11.92;100.00;101574.56;5047008;28;20078;-82
2022/10/08 06:57:25;;;;;;;104.88;31.77;;;;;;;12.00;100.00;101576.72;5034317;28;20076;-81
2022/10/08 06:59:53;;;;;;;76.13;31.50;;;;;;;12.07;100.00;101582.66;5043050;28;20029;-84
2022/10/08 07:02:19;;;;;;;84.53;30.15;;;;;;;12.06;100.00;101591.88;5046612;28;20051;-82
2022/10/08 07:04:44;;;;;;;75.22;31.33;;;;;;;12.03;100.00;101590.22;5046184;28;20025;-83
2022/10/08 07:07:10;;;;;;;81.95;30.42;;;;;;;12.11;100.00;101600.63;5047495;28;20032;-83
2022/10/08 07:09:35;;;;;;;72.35;30.45;;;;;;;12.17;100.00;101608.44;5048076;28;20053;-83
2022/10/08 07:12:01;;;;;;;75.18;30.30;;;;;;;12.32;100.00;101611.91;5064863;28;20516;-82
2022/10/08 07:14:27;;;;;;;74.22;28.75;;;;;;;12.46;100.00;101608.09;5031247;28;20049;-82
2022/10/08 07:16:53;;;;;;;71.22;30.13;;;;;;;12.35;100.00;101622.66;5048124;28;20387;-82
2022/10/08 07:19:19;;;;;;;65.05;28.65;;;;;;;12.42;100.00;101625.81;5064827;28;20044;-82
2022/10/08 07:21:45;;;;;;;64.10;26.35;;;;;;;12.25;100.00;101616.97;5046655;28;20090;-82
2022/10/08 07:24:10;;;;;;;64.50;28.63;;;;;;;12.19;100.00;101630.28;5025614;28;20030;-81
2022/10/08 07:26:36;;;;;;;70.63;28.25;;;;;;;12.50;100.00;101643.47;5032863;28;20034;-82
2022/10/08 07:29:10;;;;;;;73.88;27.67;;;;;;;12.32;100.00;101647.59;5028341;28;20040;-82
2022/10/08 07:31:36;;;;;;;59.42;27.45;;;;;;;12.42;100.00;101637.69;5044513;28;20026;-82
2022/10/08 07:34:05;;;;;;;68.68;26.75;;;;;;;12.62;100.00;101657.28;5056022;28;20067;-83
2022/10/08 07:36:31;;;;;;;64.15;26.35;;;;;;;12.86;100.00;101654.56;5064371;28;20040;-82
2022/10/08 07:39:06;;;;;;;61.17;25.88;;;;;;;12.86;100.00;101654.56;5027965;28;20033;-82
2022/10/08 07:41:32;;;;;;;69.28;25.48;;;;;;;12.93;100.00;101657.72;5060071;28;20037;-81
2022/10/08 07:44:00;;;;;;;60.53;25.10;;;;;;;12.96;100.00;101663.84;5042642;28;20068;-82
2022/10/08 07:46:32;;;;;;;56.45;25.92;;;;;;;12.71;100.00;101658.47;5059322;28;20029;-81
2022/10/08 07:48:58;;;;;;;56.63;24.50;;;;;;;12.86;100.00;101657.31;5059141;28;20064;-82
2022/10/08 07:51:25;;;;;;;53.47;23.27;;;;;;;13.30;100.00;101663.13;5060539;28;20024;-82
2022/10/08 07:53:50;;;;;;;57.40;23.30;;;;;;;13.59;100.00;101677.38;5043470;28;20032;-82
2022/10/08 07:56:20;;;;;;;58.13;21.60;;;;;;;13.56;100.00;101672.13;5042830;28;20388;-82
2022/10/08 07:58:46;;;;;;;38.15;18.58;;;;;;;13.47;100.00;101667.34;5061512;28;20029;-82
2022/10/08 08:01:20;;;;;;;41.42;18.63;;;;;;;13.50;100.00;101681.75;5027853;28;20077;-82
2022/10/08 08:03:52;;;;;;;44.92;17.00;;;;;;;13.74;100.00;101676.19;5061759;28;20025;-83
2022/10/08 08:06:18;;;;;;;37.10;17.03;;;;;;;13.88;100.00;101685.22;5063181;28;20033;-82
2022/10/08 08:08:44;;;;;;;43.80;17.23;;;;;;;13.95;100.00;101684.59;5027499;28;20302;-84
2022/10/08 08:11:13;;;;;;;36.47;15.07;;;;;;;14.24;100.00;101706.16;5061542;28;20045;-83
2022/10/08 08:13:39;;;;;;;36.33;15.93;;;;;;;14.18;100.00;101701.13;5061733;28;20025;-82
2022/10/08 08:16:08;;;;;;;36.05;13.75;;;;;;;14.24;100.00;101702.53;5044461;28;20025;-84
2022/10/08 08:18:36;;;;;;;32.72;13.73;;;;;;;14.66;100.00;101711.94;5061983;28;20029;-83
2022/10/08 08:21:08;;;;;;;30.90;13.43;;;;;;;14.88;100.00;101707.38;5038250;28;20029;-83
2022/10/08 08:23:36;;;;;;;34.47;11.73;;;;;;;14.68;100.00;101703.53;5053266;28;20048;-82
2022/10/08 08:26:06;;;;;;;21.63;11.48;;;;;;;14.62;100.00;101715.94;5064921;28;20123;-82
2022/10/08 08:28:32;;;;;;;24.88;10.00;;;;;;;14.97;100.00;101720.41;5039345;28;20035;-83
2022/10/08 08:31:12;;;;;;;18.30;8.75;;;;;;;15.00;100.00;101722.91;5039768;28;20055;-83
2022/10/08 08:33:38;;;;;;;26.42;8.65;;;;;;;14.43;100.00;101722.06;5058599;28;20065;-82
2022/10/08 08:36:03;;;;;;;21.30;8.43;;;;;;;14.25;100.00;101729.94;5042620;28;20029;-82
2022/10/08 08:38:30;;;;;;;23.40;7.78;;;;;;;14.06;100.00;101729.66;5020535;28;20041;-82
2022/10/08 08:41:05;;;;;;;21.75;8.35;;;;;;;14.64;100.00;101741.53;5042795;28;20052;-82
2022/10/08 08:43:31;;;;;;;22.58;6.28;;;;;;;15.12;100.00;101754.09;5043870;28;20029;-82
2022/10/08 08:45:56;;;;;;;15.95;5.90;;;;;;;14.77;100.00;101744.09;5027038;28;20366;-82
2022/10/08 08:48:25;;;;;;;18.13;6.35;;;;;;;15.30;100.00;101754.44;5059619;28;20384;-82
2022/10/08 08:50:55;;;;;;;20.10;5.10;;;;;;;15.24;100.00;101749.41;5062588;28;20020;-82
2022/10/08 08:53:21;;;;;;;11.75;4.50;;;;;;;15.84;100.00;101752.59;5059881;28;20450;-82
2022/10/08 08:56:01;;;;;;;11.70;3.90;;;;;;;15.90;100.00;101762.22;5040906;28;20065;-82
2022/10/08 08:58:44;;;;;;;22.25;4.78;;;;;;;16.50;100.00;101765.22;5059637;28;20477;-82
2022/10/08 09:01:23;;;;;;;17.70;3.30;;;;;;;16.28;100.00;101755.19;5058326;28;20029;-82
2022/10/08 09:03:56;;;;;;;18.67;3.42;;;;;;;16.34;100.00;101768.47;5041731;28;20025;-81
2022/10/08 09:06:24;;;;;;;18.00;3.10;;;;;;;16.76;100.00;101771.16;5038161;28;20033;-82
2022/10/08 09:09:25;;;;;;;12.70;2.60;;;;;;;16.92;100.00;101769.78;5038301;28;20071;-82
2022/10/08 09:11:51;;;;;;;14.95;2.25;;;;;;;17.30;100.00;101773.66;5059506;28;20040;-82
2022/10/08 09:14:39;;;;;;;15.80;2.63;;;;;;;16.84;100.00;101775.97;5037191;28;20396;-82
2022/10/08 09:17:39;;;;;;;15.75;2.60;;;;;;;17.01;100.00;101786.41;5059292;28;20039;-82
2022/10/08 09:20:05;;;;;;;13.52;1.80;;;;;;;17.60;100.00;101786.53;5033117;28;20064;-83
2022/10/08 09:22:40;;;;;;;6.63;2.08;;;;;;;16.14;100.00;101782.16;5048270;28;20045;-82
2022/10/08 09:25:12;;;;;;;5.88;1.70;;;;;;;16.08;100.00;101788.22;5039843;28;20029;-83
2022/10/08 09:28:03;;;;;;;12.07;1.95;;;;;;;16.62;100.00;101801.94;5036051;28;20065;-82
2022/10/08 09:30:37;;;;;;;6.88;1.67;;;;;;;16.25;100.00;101794.16;5048090;28;20056;-82
2022/10/08 09:33:20;;;;;;;9.73;1.45;;;;;;;17.11;100.00;101805.81;5037942;28;20536;-82
2022/10/08 09:35:47;;;;;;;8.27;2.03;;;;;;;17.53;100.00;101807.50;5055030;28;20353;-82
2022/10/08 09:38:24;;;;;;;13.23;1.55;;;;;;;17.47;100.00;101808.09;5056944;28;20033;-82
2022/10/08 09:41:10;;;;;;;7.70;1.80;;;;;;;16.70;100.00;101799.38;5054966;28;20040;-82
2022/10/08 09:43:36;;;;;;;8.82;1.83;;;;;;;16.77;100.00;101816.28;5053970;28;20021;-82
2022/10/08 09:46:28;;;;;;;8.63;1.20;;;;;;;17.27;100.00;101819.13;5039061;28;20024;-82
2022/10/08 09:48:54;;;;;;;8.50;1.10;;;;;;;16.44;100.00;101819.16;5039872;28;20060;-82
2022/10/08 09:51:20;;;;;;;13.55;1.20;;;;;;;17.42;100.00;101822.38;5059724;28;20033;-81
2022/10/08 09:53:45;;;;;;;5.72;0.80;;;;;;;16.58;100.00;101829.00;5049028;28;20499;-81
2022/10/08 09:56:13;;;;;;;5.97;0.65;;;;;;;16.10;100.00;101830.44;5061136;28;20029;-81
2022/10/08 09:59:02;;;;;;;10.30;0.90;;;;;;;16.03;100.00;101826.44;5061622;28;20052;-84
2022/10/08 10:01:30;;;;;;;6.68;0.90;;;;;;;15.56;100.00;101832.25;5061704;28;20040;-81
2022/10/08 10:04:01;;;;;;;7.55;1.40;;;;;;;16.42;100.00;101840.53;5024464;28;20033;-81
2022/10/08 10:06:32;;;;;;;5.72;1.15;;;;;;;16.45;100.00;101833.88;5040197;28;20079;-81
2022/10/08 10:09:00;;;;;;;10.13;0.95;;;;;;;15.81;100.00;101841.25;5061579;28;20029;-82
2022/10/08 10:11:28;;;;;;;7.95;0.75;;;;;;;15.55;100.00;101836.00;5065840;28;20057;-80
2022/10/08 10:13:56;;;;;;;9.48;0.80;;;;;;;15.44;100.00;101836.03;5039462;28;20041;-82
2022/10/08 10:16:32;;;;;;;7.20;0.80;;;;;;;15.43;100.00;101834.31;5053842;28;20032;-82
2022/10/08 10:19:06;;;;;;;9.02;1.58;;;;;;;15.33;100.00;101830.53;5057975;28;20055;-81
2022/10/08 10:21:46;;;;;;;8.32;1.30;;;;;;;15.67;100.00;101844.25;5041937;28;20060;-82
2022/10/08 10:24:34;;;;;;;4.20;0.98;;;;;;;16.60;100.00;101835.25;5058551;28;20098;-82
2022/10/08 10:27:11;;;;;;;6.13;0.73;;;;;;;17.16;100.00;101839.47;5065623;28;20397;-82
2022/10/08 10:29:48;;;;;;;7.53;0.80;;;;;;;17.45;100.00;101850.63;5045498;28;20029;-82
2022/10/08 10:32:19;;;;;;;8.98;0.82;;;;;;;17.51;100.00;101848.31;5058403;28;20029;-82
2022/10/08 10:34:55;;;;;;;8.25;0.95;;;;;;;17.45;100.00;101855.31;5057891;28;20496;-83
2022/10/08 10:37:32;;;;;;;7.40;0.88;;;;;;;17.23;100.00;101856.41;5040642;28;20077;-82
2022/10/08 10:40:22;;;;;;;8.50;1.02;;;;;;;16.87;100.00;101853.19;5058269;28;20496;-82
2022/10/08 10:42:57;;;;;;;5.38;0.80;;;;;;;16.94;100.00;101861.81;5032731;28;20033;-82
2022/10/08 10:45:26;;;;;;;6.32;0.90;;;;;;;16.49;100.00;101852.78;5057968;28;20366;-82
2022/10/08 10:47:53;;;;;;;4.88;0.70;;;;;;;16.02;100.00;101868.91;5037751;28;20413;-81
2022/10/08 10:50:28;;;;;;;5.82;0.88;;;;;;;15.56;100.00;101864.47;5059648;28;20059;-82
2022/10/08 10:53:03;;;;;;;6.25;0.80;;;;;;;15.32;100.00;101867.44;5058351;28;20033;-82
2022/10/08 10:55:31;;;;;;;11.50;1.23;;;;;;;15.09;100.00;101869.34;5059101;28;20037;-82
2022/10/08 10:58:35;;;;;;;5.10;0.90;;;;;;;15.51;100.00;101872.28;5056863;28;20033;-82
2022/10/08 11:01:03;;;;;;;;;;;;;;;15.28;100.00;101868.69;5037887;28;20028;-82
2022/10/08 11:03:57;;;;;;;6.55;1.25;;;;;;;15.96;100.00;101873.06;5021183;28;20010;-82
2022/10/08 11:06:51;;;;;;;4.38;0.90;;;;;;;16.38;100.00;101876.88;5044822;28;20384;-83
2022/10/08 11:09:40;;;;;;;8.70;1.02;;;;;;;16.81;100.00;101873.97;5057194;28;20055;-83
2022/10/08 11:12:27;;;;;;;5.20;0.90;;;;;;;17.18;100.00;101865.09;5057926;28;20053;-83
2022/10/08 11:15:07;;;;;;;10.40;0.95;;;;;;;17.63;100.00;101875.75;5060166;28;20067;-82
2022/10/08 11:17:38;;;;;;;6.30;0.60;;;;;;;17.31;100.00;101875.06;5048433;28;20055;-82
2022/10/08 11:20:16;;;;;;;4.28;0.80;;;;;;;16.46;100.00;101880.75;5054308;28;20033;-82
2022/10/08 11:22:59;;;;;;;6.93;0.90;;;;;;;15.97;100.00;101863.78;5042360;28;20048;-82
2022/10/08 11:25:34;;;;;;;;;;;;;;;16.47;100.00;101868.66;5041821;28;20032;-83
2022/10/08 11:28:13;;;;;;;10.10;0.90;;;;;;;16.87;100.00;101873.44;5055613;28;19940;-83